Time;durP1;ratioP1;P1;durP2;ratioP2;P2;SDS_P1;SDS_P2;PMS_P1;PMS_P2;Temp;Humidity;BMP_temperature;BMP_pressure;BME280_temperature;BME280_humidity;BME280_pressure;Samples;Min_cycle;Max_cycle;Signal;HPM_P1;HPM_P2
2023/01/28 00:02:17;;;;;;;;;;;;;;;;;;5131772;27;19995;-67
2023/01/28 00:04:43;;;;;;;;;;;;;;;;;;5131274;27;20421;-66
2023/01/28 00:07:09;;;;;;;;;;;;;;;;;;5125048;27;19907;-66
2023/01/28 00:09:34;;;;;;;;;;;;;;;;;;5112981;27;20390;-64
2023/01/28 00:12:03;;;;;;;;;;;;;;;;;;5112617;27;19913;-66
2023/01/28 00:14:29;;;;;;;;;;;;;;;;;;5131104;27;19961;-67
2023/01/28 00:16:55;;;;;;;;;;;;;;;;;;5131440;27;19907;-65
2023/01/28 00:19:22;;;;;;;;;;;;;;;;;;5130890;27;20429;-67
2023/01/28 00:21:48;;;;;;;;;;;;;;;;;;5131042;27;19952;-67
2023/01/28 00:24:14;;;;;;;;;;;;;;;;;;5131091;27;19919;-67
2023/01/28 00:26:40;;;;;;;;;;;;;;;;;;5131064;27;19958;-67
2023/01/28 00:29:06;;;;;;;;;;;;;;;;;;5130702;27;19947;-66
2023/01/28 00:31:33;;;;;;;;;;;;;;;;;;5131098;27;19912;-67
2023/01/28 00:33:59;;;;;;;;;;;;;;;;;;5131545;27;19907;-66
2023/01/28 00:36:25;;;;;;;;;;;;;;;;;;5130541;27;20298;-68
2023/01/28 00:38:50;;;;;;;;;;;;;;;;;;5130848;27;19908;-67
2023/01/28 00:41:16;;;;;;;;;;;;;;;;;;5131592;27;19908;-67
2023/01/28 00:43:43;;;;;;;;;;;;;;;;;;5130284;27;19993;-68
2023/01/28 00:46:09;;;;;;;;;;;;;;;;;;5130572;27;19911;-67
2023/01/28 00:48:35;;;;;;;;;;;;;;;;;;5130683;27;20402;-67
2023/01/28 00:51:01;;;;;;;;;;;;;;;;;;5130057;27;19912;-67
2023/01/28 00:53:27;;;;;;;;;;;;;;;;;;5130706;27;20384;-66
2023/01/28 00:55:53;;;;;;;;;;;;;;;;;;5130882;27;19918;-66
2023/01/28 00:58:19;;;;;;;;;;;;;;;;;;5130112;27;20048;-67
2023/01/28 01:00:45;;;;;;;;;;;;;;;;;;5130102;27;20394;-67
2023/01/28 01:03:11;;;;;;;;;;;;;;;;;;5130906;27;20490;-67
2023/01/28 01:05:36;;;;;;;;;;;;;;;;;;5130126;27;19924;-66
2023/01/28 01:08:02;;;;;;;;;;;;;;;;;;5130036;27;19919;-67
2023/01/28 01:10:28;;;;;;;;;;;;;;;;;;5130284;27;20543;-67
2023/01/28 01:12:56;;;;;;;;;;;;;;;;;;5130084;27;19911;-66
2023/01/28 01:15:22;;;;;;;;;;;;;;;;;;5123516;27;19911;-66
2023/01/28 01:17:48;;;;;;;;;;;;;;;;;;5130324;27;20287;-67
2023/01/28 01:20:14;;;;;;;;;;;;;;;;;;5130370;27;19912;-66
2023/01/28 01:22:40;;;;;;;;;;;;;;;;;;5129776;27;19915;-65
2023/01/28 01:25:06;;;;;;;;;;;;;;;;;;5129334;27;19916;-67
2023/01/28 01:27:32;;;;;;;;;;;;;;;;;;5129807;27;20007;-66
2023/01/28 01:29:58;;;;;;;;;;;;;;;;;;5129790;27;19919;-65
2023/01/28 01:32:24;;;;;;;;;;;;;;;;;;5129752;27;19911;-65
2023/01/28 01:34:49;;;;;;;;;;;;;;;;;;5129434;27;19918;-66
2023/01/28 01:37:15;;;;;;;;;;;;;;;;;;5130017;27;20041;-66
2023/01/28 01:39:41;;;;;;;;;;;;;;;;;;5129538;28;19912;-66
2023/01/28 01:42:07;;;;;;;;;;;;;;;;;;5129831;28;19961;-65
2023/01/28 01:44:33;;;;;;;;;;;;;;;;;;5129627;28;19924;-65
2023/01/28 01:46:59;;;;;;;;;;;;;;;;;;5129861;28;19911;-64
2023/01/28 01:49:25;;;;;;;;;;;;;;;;;;5130000;28;19907;-64
2023/01/28 01:51:51;;;;;;;;;;;;;;;;;;5129959;28;19912;-67
2023/01/28 01:54:17;;;;;;;;;;;;;;;;;;5129788;28;19934;-66
2023/01/28 01:56:43;;;;;;;;;;;;;;;;;;5130142;28;20363;-68
2023/01/28 01:59:09;;;;;;;;;;;;;;;;;;5129393;28;19916;-67
2023/01/28 02:01:34;;;;;;;;;;;;;;;;;;5129540;28;19918;-66
2023/01/28 02:04:00;;;;;;;;;;;;;;;;;;5129447;28;20024;-64
2023/01/28 02:06:26;;;;;;;;;;;;;;;;;;5129840;28;19911;-67
2023/01/28 02:08:52;;;;;;;;;;;;;;;;;;5129330;28;20375;-66
2023/01/28 02:11:18;;;;;;;;;;;;;;;;;;5129460;28;19951;-68
2023/01/28 02:13:44;;;;;;;;;;;;;;;;;;5129595;28;20370;-66
2023/01/28 02:16:10;;;;;;;;;;;;;;;;;;5129497;28;19911;-67
2023/01/28 02:18:36;;;;;;;;;;;;;;;;;;5129470;28;20350;-67
2023/01/28 02:21:02;;;;;;;;;;;;;;;;;;5129370;28;19919;-67
2023/01/28 02:23:27;;;;;;;;;;;;;;;;;;5129098;28;19974;-66
2023/01/28 02:25:53;;;;;;;;;;;;;;;;;;5129652;28;20387;-67
2023/01/28 02:28:19;;;;;;;;;;;;;;;;;;5129078;28;19919;-66
2023/01/28 02:30:45;;;;;;;;;;;;;;;;;;5129737;28;19919;-68
2023/01/28 02:33:11;;;;;;;;;;;;;;;;;;5129241;28;20337;-69
2023/01/28 02:35:37;;;;;;;;;;;;;;;;;;5129726;28;20287;-68
2023/01/28 02:38:03;;;;;;;;;;;;;;;;;;5128961;28;19964;-67
2023/01/28 02:40:29;;;;;;;;;;;;;;;;;;5129066;28;19911;-67
2023/01/28 02:42:55;;;;;;;;;;;;;;;;;;5129414;28;20010;-67
2023/01/28 02:45:20;;;;;;;;;;;;;;;;;;5130347;27;20088;-66
2023/01/28 02:47:58;;;;;;;;;;;;;;;;;;5132771;27;20436;-67
2023/01/28 02:50:24;;;;;;;;;;;;;;;;;;5132964;27;20431;-67
2023/01/28 02:55:35;;;;;;;;;;;;;;;;;;5132847;27;19918;-66
2023/01/28 02:58:01;;;;;;;;;;;;;;;;;;5132642;27;19933;-67
2023/01/28 03:00:26;;;;;;;;;;;;;;;;;;5133043;27;19958;-66
2023/01/28 03:02:53;;;;;;;;;;;;;;;;;;5132629;27;20287;-67
2023/01/28 03:05:21;;;;;;;;;;;;;;;;;;5133204;27;19920;-67
2023/01/28 03:07:47;;;;;;;;;;;;;;;;;;5131899;27;19912;-65
2023/01/28 03:10:15;;;;;;;;;;;;;;;;;;5132525;27;19911;-67
2023/01/28 03:37:24;;;;;;;;;;;;;;;;;;5131827;27;19949;-66
2023/01/28 03:39:50;;;;;;;;;;;;;;;;;;5131908;27;19912;-66
2023/01/28 03:42:17;;;;;;;;;;;;;;;;;;5132457;27;19964;-66
2023/01/28 03:44:52;;;;;;;;;;;;;;;;;;5131810;27;20006;-66
2023/01/28 03:47:18;;;;;;;;;;;;;;;;;;5131883;27;19917;-65
2023/01/28 03:49:44;;;;;;;;;;;;;;;;;;5131704;27;19911;-66
2023/01/28 03:52:10;;;;;;;;;;;;;;;;;;5131507;27;19915;-66
2023/01/28 03:54:36;;;;;;;;;;;;;;;;;;5131682;27;20291;-64
2023/01/28 03:57:02;;;;;;;;;;;;;;;;;;5131085;27;19927;-66
2023/01/28 03:59:28;;;;;;;;;;;;;;;;;;5131565;27;19961;-64
2023/01/28 04:01:54;;;;;;;;;;;;;;;;;;5131451;27;19915;-67
2023/01/28 04:04:23;;;;;;;;;;;;;;;;;;5131684;27;19926;-66
2023/01/28 04:06:49;;;;;;;;;;;;;;;;;;5130963;27;19915;-65
2023/01/28 04:09:15;;;;;;;;;;;;;;;;;;5131391;27;19960;-67
2023/01/28 04:11:41;;;;;;;;;;;;;;;;;;5131809;27;19911;-66
2023/01/28 04:14:07;;;;;;;;;;;;;;;;;;5131307;27;19913;-65
2023/01/28 04:16:33;;;;;;;;;;;;;;;;;;5131109;27;19911;-66
2023/01/28 04:18:59;;;;;;;;;;;;;;;;;;5131384;27;20352;-65
2023/01/28 04:21:25;;;;;;;;;;;;;;;;;;5131080;27;20402;-66
2023/01/28 04:23:51;;;;;;;;;;;;;;;;;;5131010;27;19916;-65
2023/01/28 04:26:17;;;;;;;;;;;;;;;;;;5130975;27;19911;-64
2023/01/28 04:28:43;;;;;;;;;;;;;;;;;;5131284;27;19918;-66
2023/01/28 04:31:08;;;;;;;;;;;;;;;;;;5130746;27;20256;-67
2023/01/28 04:33:34;;;;;;;;;;;;;;;;;;5130822;27;20059;-66
2023/01/28 04:36:00;;;;;;;;;;;;;;;;;;5130709;27;20010;-67
2023/01/28 04:38:26;;;;;;;;;;;;;;;;;;5131133;27;20287;-67
2023/01/28 04:40:52;;;;;;;;;;;;;;;;;;5130629;27;20492;-66
2023/01/28 04:43:18;;;;;;;;;;;;;;;;;;5130767;27;20584;-64
2023/01/28 04:45:44;;;;;;;;;;;;;;;;;;5130496;27;19923;-65
2023/01/28 04:48:10;;;;;;;;;;;;;;;;;;5130080;27;19964;-68
2023/01/28 04:50:36;;;;;;;;;;;;;;;;;;5130297;27;19918;-66
2023/01/28 04:53:02;;;;;;;;;;;;;;;;;;5124057;27;19912;-64
2023/01/28 04:55:28;;;;;;;;;;;;;;;;;;5130592;27;19960;-65
2023/01/28 04:57:54;;;;;;;;;;;;;;;;;;5130370;27;20698;-67
2023/01/28 05:00:20;;;;;;;;;;;;;;;;;;5130743;27;19965;-67
2023/01/28 05:02:46;;;;;;;;;;;;;;;;;;5130322;27;20355;-66
2023/01/28 05:05:12;;;;;;;;;;;;;;;;;;5131753;27;19926;-68
2023/01/28 05:07:38;;;;;;;;;;;;;;;;;;5133889;27;19908;-67
2023/01/28 05:10:04;;;;;;;;;;;;;;;;;;5132823;27;20085;-66
2023/01/28 05:12:31;;;;;;;;;;;;;;;;;;5130894;27;20673;-66
2023/01/28 05:14:59;;;;;;;;;;;;;;;;;;5130967;27;20390;-66
2023/01/28 05:17:25;;;;;;;;;;;;;;;;;;5130624;27;19911;-67
2023/01/28 05:19:51;;;;;;;;;;;;;;;;;;5130646;27;19907;-66
2023/01/28 05:22:17;;;;;;;;;;;;;;;;;;5112026;27;20409;-65
2023/01/28 05:24:43;;;;;;;;;;;;;;;;;;5129983;27;20280;-65
2023/01/28 05:27:09;;;;;;;;;;;;;;;;;;5130197;27;19908;-64
2023/01/28 05:29:34;;;;;;;;;;;;;;;;;;5129396;27;19994;-65
2023/01/28 05:32:00;;;;;;;;;;;;;;;;;;5129823;27;19911;-66
2023/01/28 05:34:26;;;;;;;;;;;;;;;;;;5130301;27;20002;-65
2023/01/28 05:36:52;;;;;;;;;;;;;;;;;;5129782;27;20044;-62
2023/01/28 05:39:18;;;;;;;;;;;;;;;;;;5129315;27;20282;-64
2023/01/28 05:41:44;;;;;;;;;;;;;;;;;;5129731;28;19915;-65
2023/01/28 05:44:10;;;;;;;;;;;;;;;;;;5129897;28;20420;-65
2023/01/28 05:46:36;;;;;;;;;;;;;;;;;;5129422;28;20029;-66
2023/01/28 05:49:02;;;;;;;;;;;;;;;;;;5129842;28;19919;-66
2023/01/28 05:51:27;;;;;;;;;;;;;;;;;;5129352;28;20291;-66
2023/01/28 05:53:53;;;;;;;;;;;;;;;;;;5129377;28;19908;-65
2023/01/28 05:56:19;;;;;;;;;;;;;;;;;;5129519;28;19911;-66
2023/01/28 05:58:45;;;;;;;;;;;;;;;;;;5129269;28;20422;-66
2023/01/28 06:01:11;;;;;;;;;;;;;;;;;;5129578;28;19915;-63
2023/01/28 06:03:37;;;;;;;;;;;;;;;;;;5129833;28;19969;-64
2023/01/28 06:06:03;;;;;;;;;;;;;;;;;;5129043;28;19972;-66
2023/01/28 06:08:29;;;;;;;;;;;;;;;;;;5129389;28;20274;-64
2023/01/28 06:10:54;;;;;;;;;;;;;;;;;;5129988;28;19922;-68
2023/01/28 06:13:20;;;;;;;;;;;;;;;;;;5129402;28;20290;-68
2023/01/28 06:15:46;;;;;;;;;;;;;;;;;;5129762;28;19986;-67
2023/01/28 06:18:12;;;;;;;;;;;;;;;;;;5129819;28;20629;-67
2023/01/28 06:20:38;;;;;;;;;;;;;;;;;;5132431;27;19957;-67
2023/01/28 06:23:04;;;;;;;;;;;;;;;;;;5133367;27;19911;-67
2023/01/28 06:25:30;;;;;;;;;;;;;;;;;;5114960;27;19916;-66
2023/01/28 06:27:56;;;;;;;;;;;;;;;;;;5133388;27;19919;-66
2023/01/28 06:30:22;;;;;;;;;;;;;;;;;;5132665;27;19915;-66
2023/01/28 06:32:48;;;;;;;;;;;;;;;;;;5132949;27;19919;-66
2023/01/28 06:35:13;;;;;;;;;;;;;;;;;;5133552;27;19955;-66
2023/01/28 06:37:40;;;;;;;;;;;;;;;;;;5133335;27;19922;-68
2023/01/28 06:40:06;;;;;;;;;;;;;;;;;;5133548;27;19947;-68
2023/01/28 06:42:32;;;;;;;;;;;;;;;;;;5133415;27;19958;-69
2023/01/28 06:44:58;;;;;;;;;;;;;;;;;;5133042;27;19923;-67
2023/01/28 06:47:24;;;;;;;;;;;;;;;;;;5133069;27;19908;-64
2023/01/28 06:49:50;;;;;;;;;;;;;;;;;;5133087;27;19912;-67
2023/01/28 06:52:16;;;;;;;;;;;;;;;;;;5133238;27;19912;-67
2023/01/28 06:54:41;;;;;;;;;;;;;;;;;;5133137;27;20033;-68
2023/01/28 06:57:07;;;;;;;;;;;;;;;;;;5114672;27;19962;-65
2023/01/28 06:59:33;;;;;;;;;;;;;;;;;;5132718;27;19918;-66
2023/01/28 07:01:59;;;;;;;;;;;;;;;;;;5126429;27;19915;-66
2023/01/28 07:04:25;;;;;;;;;;;;;;;;;;5132647;27;19953;-65
2023/01/28 07:06:51;;;;;;;;;;;;;;;;;;5132649;27;19974;-66
2023/01/28 07:09:17;;;;;;;;;;;;;;;;;;5133869;27;19915;-65
2023/01/28 07:11:43;;;;;;;;;;;;;;;;;;5132859;27;19911;-65
2023/01/28 07:14:09;;;;;;;;;;;;;;;;;;5132704;27;19914;-66
2023/01/28 07:16:35;;;;;;;;;;;;;;;;;;5132925;27;19950;-65
2023/01/28 07:19:00;;;;;;;;;;;;;;;;;;5133928;27;19907;-66
2023/01/28 07:21:26;;;;;;;;;;;;;;;;;;5133044;27;19953;-66
2023/01/28 07:23:52;;;;;;;;;;;;;;;;;;5132885;27;19919;-67
2023/01/28 07:26:18;;;;;;;;;;;;;;;;;;5132689;27;19915;-66
2023/01/28 07:28:44;;;;;;;;;;;;;;;;;;5132118;27;19930;-66
2023/01/28 07:31:10;;;;;;;;;;;;;;;;;;5131959;27;19907;-67
2023/01/28 07:33:36;;;;;;;;;;;;;;;;;;5115301;27;20327;-67
2023/01/28 07:36:02;;;;;;;;;;;;;;;;;;5132078;27;19911;-67
2023/01/28 07:38:28;;;;;;;;;;;;;;;;;;5131819;27;20397;-67
2023/01/28 07:40:54;;;;;;;;;;;;;;;;;;5132245;27;19934;-67
2023/01/28 07:43:20;;;;;;;;;;;;;;;;;;5131918;27;19915;-67
2023/01/28 07:45:46;;;;;;;;;;;;;;;;;;5131642;27;19915;-67
2023/01/28 07:48:12;;;;;;;;;;;;;;;;;;5131597;27;19908;-68
2023/01/28 07:50:39;;;;;;;;;;;;;;;;;;5131786;27;19959;-68
2023/01/28 07:53:05;;;;;;;;;;;;;;;;;;5131823;27;19912;-67
2023/01/28 07:55:31;;;;;;;;;;;;;;;;;;5131492;27;19918;-67
2023/01/28 07:57:56;;;;;;;;;;;;;;;;;;5131315;27;20370;-68
2023/01/28 08:00:22;;;;;;;;;;;;;;;;;;5131506;27;19908;-68
2023/01/28 08:02:51;;;;;;;;;;;;;;;;;;5131145;27;20049;-66
2023/01/28 08:05:16;;;;;;;;;;;;;;;;;;5124744;27;19916;-65
2023/01/28 08:07:42;;;;;;;;;;;;;;;;;;5124747;27;19918;-66
2023/01/28 08:10:09;;;;;;;;;;;;;;;;;;5130905;27;19915;-68
2023/01/28 08:12:34;;;;;;;;;;;;;;;;;;5130995;27;19923;-66
2023/01/28 08:15:00;;;;;;;;;;;;;;;;;;5130608;27;19907;-64
2023/01/28 08:17:26;;;;;;;;;;;;;;;;;;5130275;27;20041;-63
2023/01/28 08:19:52;;;;;;;;;;;;;;;;;;5128505;27;19973;-64
2023/01/28 08:22:18;;;;;;;;;;;;;;;;;;5130475;27;19953;-63
2023/01/28 08:24:44;;;;;;;;;;;;;;;;;;5129603;27;19972;-60
2023/01/28 08:27:10;;;;;;;;;;;;;;;;;;5116267;27;20352;-62
2023/01/28 08:29:36;;;;;;;;;;;;;;;;;;5128334;27;19915;-61
2023/01/28 08:32:02;;;;;;;;;;;;;;;;;;5130693;27;19908;-62
2023/01/28 08:34:28;;;;;;;;;;;;;;;;;;5130197;27;19915;-62
2023/01/28 08:36:54;;;;;;;;;;;;;;;;;;5130294;27;19947;-61
2023/01/28 08:39:20;;;;;;;;;;;;;;;;;;5130704;27;20469;-62
2023/01/28 08:41:45;;;;;;;;;;;;;;;;;;5130584;27;19912;-63
2023/01/28 08:44:14;;;;;;;;;;;;;;;;;;5127386;27;20014;-64
2023/01/28 08:46:40;;;;;;;;;;;;;;;;;;5120093;27;20393;-63
2023/01/28 08:49:06;;;;;;;;;;;;;;;;;;5127583;27;20440;-63
2023/01/28 08:51:32;;;;;;;;;;;;;;;;;;5127968;27;20023;-63
2023/01/28 08:53:58;;;;;;;;;;;;;;;;;;5123728;27;19915;-63
2023/01/28 08:56:24;;;;;;;;;;;;;;;;;;5127846;27;19924;-64
2023/01/28 08:58:50;;;;;;;;;;;;;;;;;;5127457;27;19915;-62
2023/01/28 09:01:16;;;;;;;;;;;;;;;;;;5128172;27;20367;-64
2023/01/28 09:03:41;;;;;;;;;;;;;;;;;;5126438;27;19999;-62
2023/01/28 09:06:07;;;;;;;;;;;;;;;;;;5126289;27;19927;-65
2023/01/28 09:08:33;;;;;;;;;;;;;;;;;;5124440;27;20026;-64
2023/01/28 09:10:59;;;;;;;;;;;;;;;;;;5126649;27;20448;-64
2023/01/28 09:13:25;;;;;;;;;;;;;;;;;;5126716;27;19919;-65
2023/01/28 09:15:51;;;;;;;;;;;;;;;;;;5127250;27;19916;-62
2023/01/28 09:18:17;;;;;;;;;;;;;;;;;;5129544;27;20411;-64
2023/01/28 09:20:43;;;;;;;;;;;;;;;;;;5129053;27;19916;-61
2023/01/28 09:23:09;;;;;;;;;;;;;;;;;;5129113;27;19915;-64
2023/01/28 09:25:35;;;;;;;;;;;;;;;;;;5128901;27;19923;-61
2023/01/28 09:28:01;;;;;;;;;;;;;;;;;;5130341;27;20048;-64
2023/01/28 09:30:27;;;;;;;;;;;;;;;;;;5129472;27;19912;-64
2023/01/28 09:32:53;;;;;;;;;;;;;;;;;;5130018;27;19911;-63
2023/01/28 09:35:19;;;;;;;;;;;;;;;;;;5129384;27;19911;-63
2023/01/28 09:37:45;;;;;;;;;;;;;;;;;;5129743;27;19908;-64
2023/01/28 09:40:11;;;;;;;;;;;;;;;;;;5129688;27;19956;-64
2023/01/28 09:42:37;;;;;;;;;;;;;;;;;;5130042;28;20023;-63
2023/01/28 09:45:03;;;;;;;;;;;;;;;;;;5129911;28;19926;-63
2023/01/28 09:47:28;;;;;;;;;;;;;;;;;;5129441;28;19980;-64
2023/01/28 09:49:55;;;;;;;;;;;;;;;;;;5129728;28;19911;-64
2023/01/28 09:52:21;;;;;;;;;;;;;;;;;;5130136;28;20379;-63
2023/01/28 09:54:48;;;;;;;;;;;;;;;;;;5131161;27;19907;-64
2023/01/28 09:57:14;;;;;;;;;;;;;;;;;;5134118;27;20626;-63
2023/01/28 09:59:40;;;;;;;;;;;;;;;;;;5133994;27;20390;-63
2023/01/28 10:02:06;;;;;;;;;;;;;;;;;;5133584;27;19912;-63
2023/01/28 10:04:32;;;;;;;;;;;;;;;;;;5133690;27;19923;-64
2023/01/28 10:06:59;;;;;;;;;;;;;;;;;;5134081;27;19912;-64
2023/01/28 10:09:24;;;;;;;;;;;;;;;;;;5133709;27;19922;-64
2023/01/28 10:11:50;;;;;;;;;;;;;;;;;;5133641;27;20287;-62
2023/01/28 10:14:16;;;;;;;;;;;;;;;;;;5133900;27;19965;-64
2023/01/28 10:16:42;;;;;;;;;;;;;;;;;;5133749;27;20434;-64
2023/01/28 10:19:08;;;;;;;;;;;;;;;;;;5126868;27;19918;-63
2023/01/28 10:21:34;;;;;;;;;;;;;;;;;;5133149;27;19960;-63
2023/01/28 10:24:00;;;;;;;;;;;;;;;;;;5133630;27;19919;-65
2023/01/28 10:26:26;;;;;;;;;;;;;;;;;;5133522;27;19912;-64
2023/01/28 10:28:51;;;;;;;;;;;;;;;;;;5133392;27;19911;-64
2023/01/28 10:31:17;;;;;;;;;;;;;;;;;;5133083;27;19908;-65
2023/01/28 10:33:43;;;;;;;;;;;;;;;;;;5133533;27;20664;-64
2023/01/28 10:36:09;;;;;;;;;;;;;;;;;;5133208;27;19953;-64
2023/01/28 10:38:35;;;;;;;;;;;;;;;;;;5133345;27;19916;-65
2023/01/28 10:41:01;;;;;;;;;;;;;;;;;;5132834;27;19911;-64
2023/01/28 10:43:27;;;;;;;;;;;;;;;;;;5132971;27;20010;-64
2023/01/28 10:45:53;;;;;;;;;;;;;;;;;;5132879;27;19915;-65
2023/01/28 10:48:19;;;;;;;;;;;;;;;;;;5132822;27;19911;-64
2023/01/28 10:50:45;;;;;;;;;;;;;;;;;;5132863;27;20061;-64
2023/01/28 10:53:10;;;;;;;;;;;;;;;;;;5133072;27;19918;-62
2023/01/28 10:55:36;;;;;;;;;;;;;;;;;;5132811;27;19930;-64
2023/01/28 10:58:02;;;;;;;;;;;;;;;;;;5132729;27;20002;-63
2023/01/28 11:00:29;;;;;;;;;;;;;;;;;;5133130;27;20294;-62
2023/01/28 11:02:55;;;;;;;;;;;;;;;;;;5132823;27;19919;-60
2023/01/28 11:05:21;;;;;;;;;;;;;;;;;;5124460;27;19923;-63
2023/01/28 11:07:48;;;;;;;;;;;;;;;;;;5120945;27;20017;-64
2023/01/28 11:10:14;;;;;;;;;;;;;;;;;;5124743;27;20391;-63
2023/01/28 11:12:40;;;;;;;;;;;;;;;;;;5103723;27;19918;-65
2023/01/28 11:15:06;;;;;;;;;;;;;;;;;;5121177;27;19915;-62
2023/01/28 11:17:32;;;;;;;;;;;;;;;;;;5102224;27;19919;-63
2023/01/28 11:19:58;;;;;;;;;;;;;;;;;;5121544;27;19912;-61
2023/01/28 11:22:24;;;;;;;;;;;;;;;;;;5119137;27;20023;-62
2023/01/28 11:24:50;;;;;;;;;;;;;;;;;;5124042;27;19923;-62
2023/01/28 11:27:16;;;;;;;;;;;;;;;;;;5123074;27;19934;-62
2023/01/28 11:29:42;;;;;;;;;;;;;;;;;;5119296;27;19995;-63
2023/01/28 11:32:08;;;;;;;;;;;;;;;;;;5121839;27;19922;-63
2023/01/28 11:34:34;;;;;;;;;;;;;;;;;;5122018;27;19922;-63
2023/01/28 11:37:00;;;;;;;;;;;;;;;;;;5122288;27;20280;-63
2023/01/28 11:39:28;;;;;;;;;;;;;;;;;;5124083;27;19919;-63
2023/01/28 11:41:54;;;;;;;;;;;;;;;;;;5123771;27;19940;-64
2023/01/28 11:44:20;;;;;;;;;;;;;;;;;;5121895;27;20318;-63
2023/01/28 11:46:46;;;;;;;;;;;;;;;;;;5126041;27;19923;-65
2023/01/28 11:49:12;;;;;;;;;;;;;;;;;;5124276;27;19912;-65
2023/01/28 11:51:37;;;;;;;;;;;;;;;;;;5122727;27;19951;-61
2023/01/28 11:54:03;;;;;;;;;;;;;;;;;;5122545;27;19920;-65
2023/01/28 11:56:29;;;;;;;;;;;;;;;;;;5125486;27;19919;-64
2023/01/28 11:58:55;;;;;;;;;;;;;;;;;;5121597;27;19951;-62
2023/01/28 12:01:21;;;;;;;;;;;;;;;;;;5120869;27;19915;-62
2023/01/28 12:03:47;;;;;;;;;;;;;;;;;;5123095;27;19927;-60
2023/01/28 12:06:13;;;;;;;;;;;;;;;;;;5124992;27;19951;-62
2023/01/28 12:08:39;;;;;;;;;;;;;;;;;;5124180;27;20379;-62
2023/01/28 12:11:06;;;;;;;;;;;;;;;;;;5123570;27;19951;-63
2023/01/28 12:13:32;;;;;;;;;;;;;;;;;;5124719;27;20422;-60
2023/01/28 12:16:00;;;;;;;;;;;;;;;;;;5122893;27;19911;-62
2023/01/28 12:18:26;;;;;;;;;;;;;;;;;;5125417;27;20227;-62
2023/01/28 12:20:52;;;;;;;;;;;;;;;;;;5126360;27;19918;-63
2023/01/28 12:23:18;;;;;;;;;;;;;;;;;;5124329;27;19919;-62
2023/01/28 12:25:45;;;;;;;;;;;;;;;;;;5126152;27;19920;-62
2023/01/28 12:28:10;;;;;;;;;;;;;;;;;;5123568;27;19919;-62
2023/01/28 12:30:36;;;;;;;;;;;;;;;;;;5115451;27;19969;-62
2023/01/28 12:33:02;;;;;;;;;;;;;;;;;;5121989;27;19916;-62
2023/01/28 12:35:31;;;;;;;;;;;;;;;;;;5118762;27;20010;-63
2023/01/28 12:37:57;;;;;;;;;;;;;;;;;;5119455;27;20439;-63
2023/01/28 12:40:25;;;;;;;;;;;;;;;;;;5120722;27;19919;-63
2023/01/28 12:42:51;;;;;;;;;;;;;;;;;;5121133;27;19916;-62
2023/01/28 12:45:16;;;;;;;;;;;;;;;;;;5116074;27;20370;-63
2023/01/28 12:47:42;;;;;;;;;;;;;;;;;;5116517;27;20024;-61
2023/01/28 12:50:09;;;;;;;;;;;;;;;;;;5119625;27;20002;-61
2023/01/28 12:52:34;;;;;;;;;;;;;;;;;;5116116;27;19937;-63
2023/01/28 12:55:00;;;;;;;;;;;;;;;;;;5120885;27;19915;-61
2023/01/28 12:57:26;;;;;;;;;;;;;;;;;;5119123;27;20374;-63
2023/01/28 12:59:52;;;;;;;;;;;;;;;;;;5119269;27;20398;-63
2023/01/28 13:02:18;;;;;;;;;;;;;;;;;;5114160;27;19912;-63
2023/01/28 13:04:44;;;;;;;;;;;;;;;;;;5122754;27;19975;-63
2023/01/28 13:07:10;;;;;;;;;;;;;;;;;;5113974;27;20451;-63
2023/01/28 13:09:36;;;;;;;;;;;;;;;;;;5119142;27;19927;-63
2023/01/28 13:12:02;;;;;;;;;;;;;;;;;;5115757;27;19916;-61
2023/01/28 13:14:28;;;;;;;;;;;;;;;;;;5122139;27;19931;-62
2023/01/28 13:16:54;;;;;;;;;;;;;;;;;;5115902;27;19971;-63
2023/01/28 13:19:20;;;;;;;;;;;;;;;;;;5122049;27;19915;-63
2023/01/28 13:21:48;;;;;;;;;;;;;;;;;;5114201;27;19920;-63
2023/01/28 13:24:14;;;;;;;;;;;;;;;;;;5117969;27;20022;-62
2023/01/28 13:26:40;;;;;;;;;;;;;;;;;;5116779;27;20486;-62
2023/01/28 13:29:06;;;;;;;;;;;;;;;;;;5118321;27;19924;-62
2023/01/28 13:31:32;;;;;;;;;;;;;;;;;;5116026;27;20783;-62
2023/01/28 13:33:58;;;;;;;;;;;;;;;;;;5116305;27;20015;-62
2023/01/28 13:36:24;;;;;;;;;;;;;;;;;;5118943;27;20329;-62
2023/01/28 13:38:49;;;;;;;;;;;;;;;;;;5114910;27;19923;-61
2023/01/28 13:41:15;;;;;;;;;;;;;;;;;;5121388;27;19920;-61
2023/01/28 13:43:41;;;;;;;;;;;;;;;;;;5116548;28;19912;-61
2023/01/28 13:46:07;;;;;;;;;;;;;;;;;;5120223;28;20867;-63
2023/01/28 13:48:33;;;;;;;;;;;;;;;;;;5114249;28;19923;-63
2023/01/28 13:51:00;;;;;;;;;;;;;;;;;;5120976;28;19916;-63
2023/01/28 13:53:26;;;;;;;;;;;;;;;;;;5114030;28;19919;-63
2023/01/28 13:55:53;;;;;;;;;;;;;;;;;;5116312;28;19993;-62
2023/01/28 13:58:18;;;;;;;;;;;;;;;;;;5117459;28;19958;-64
2023/01/28 14:00:44;;;;;;;;;;;;;;;;;;5118201;27;19951;-63
2023/01/28 14:03:11;;;;;;;;;;;;;;;;;;5116414;28;20403;-63
2023/01/28 14:05:38;;;;;;;;;;;;;;;;;;5120133;28;19920;-63
2023/01/28 14:08:04;;;;;;;;;;;;;;;;;;5115105;28;19919;-64
2023/01/28 14:10:30;;;;;;;;;;;;;;;;;;5120033;28;19918;-64
2023/01/28 14:12:56;;;;;;;;;;;;;;;;;;5119825;28;20396;-63
2023/01/28 14:15:22;;;;;;;;;;;;;;;;;;5118721;28;19920;-62
2023/01/28 14:17:48;;;;;;;;;;;;;;;;;;5119130;28;20302;-63
2023/01/28 14:20:14;;;;;;;;;;;;;;;;;;5113730;28;19911;-62
2023/01/28 14:22:40;;;;;;;;;;;;;;;;;;5122633;28;19916;-64
2023/01/28 14:25:06;;;;;;;;;;;;;;;;;;5113582;28;20336;-62
2023/01/28 14:27:31;;;;;;;;;;;;;;;;;;5118672;28;19990;-62
2023/01/28 14:29:57;;;;;;;;;;;;;;;;;;5112552;28;19911;-63
2023/01/28 14:32:25;;;;;;;;;;;;;;;;;;5120846;28;19916;-63
2023/01/28 14:34:51;;;;;;;;;;;;;;;;;;5119788;28;19919;-63
2023/01/28 14:37:17;;;;;;;;;;;;;;;;;;5121388;28;19916;-63
2023/01/28 14:39:43;;;;;;;;;;;;;;;;;;5114449;27;19916;-64
2023/01/28 14:42:09;;;;;;;;;;;;;;;;;;5121770;27;19917;-63
2023/01/28 14:44:35;;;;;;;;;;;;;;;;;;5119956;27;19927;-62
2023/01/28 14:47:01;;;;;;;;;;;;;;;;;;5122830;27;19916;-63
2023/01/28 14:49:27;;;;;;;;;;;;;;;;;;5118357;27;19916;-62
2023/01/28 14:51:53;;;;;;;;;;;;;;;;;;5120212;27;19923;-62
2023/01/28 14:54:19;;;;;;;;;;;;;;;;;;5121757;27;19968;-63
2023/01/28 14:56:45;;;;;;;;;;;;;;;;;;5117797;27;19916;-64
2023/01/28 14:59:11;;;;;;;;;;;;;;;;;;5121697;27;19983;-61
2023/01/28 15:01:37;;;;;;;;;;;;;;;;;;5119227;27;19922;-61
2023/01/28 15:04:03;;;;;;;;;;;;;;;;;;5123237;27;20356;-63
2023/01/28 15:06:28;;;;;;;;;;;;;;;;;;5117890;27;19976;-63
2023/01/28 15:08:54;;;;;;;;;;;;;;;;;;5124904;27;20307;-63
2023/01/28 15:11:20;;;;;;;;;;;;;;;;;;5116520;27;19919;-62
2023/01/28 15:13:46;;;;;;;;;;;;;;;;;;5124591;27;20363;-63
2023/01/28 15:16:12;;;;;;;;;;;;;;;;;;5118058;27;19945;-63
2023/01/28 15:18:38;;;;;;;;;;;;;;;;;;5120097;27;20459;-63
2023/01/28 15:21:04;;;;;;;;;;;;;;;;;;5121683;27;20052;-62
2023/01/28 15:23:30;;;;;;;;;;;;;;;;;;5126833;27;20791;-63
2023/01/28 15:25:56;;;;;;;;;;;;;;;;;;5123971;27;20483;-63
2023/01/28 15:28:21;;;;;;;;;;;;;;;;;;5124523;27;19922;-62
2023/01/28 15:30:47;;;;;;;;;;;;;;;;;;5118958;27;19952;-63
2023/01/28 15:33:13;;;;;;;;;;;;;;;;;;5121279;27;20396;-62
2023/01/28 15:35:39;;;;;;;;;;;;;;;;;;5123151;27;19919;-62
2023/01/28 15:38:05;;;;;;;;;;;;;;;;;;5118732;27;19923;-62
2023/01/28 15:40:31;;;;;;;;;;;;;;;;;;5120189;27;19918;-64
2023/01/28 15:42:57;;;;;;;;;;;;;;;;;;5116203;27;19911;-64
2023/01/28 15:45:24;;;;;;;;;;;;;;;;;;5122985;27;19925;-64
2023/01/28 15:47:50;;;;;;;;;;;;;;;;;;5117479;27;19954;-64
2023/01/28 15:50:16;;;;;;;;;;;;;;;;;;5122118;27;20388;-61
2023/01/28 15:52:44;;;;;;;;;;;;;;;;;;5116041;27;19916;-62
2023/01/28 15:55:10;;;;;;;;;;;;;;;;;;5123063;27;19943;-60
2023/01/28 15:57:36;;;;;;;;;;;;;;;;;;5115197;27;20001;-62
2023/01/28 16:00:02;;;;;;;;;;;;;;;;;;5120072;27;19923;-61
2023/01/28 16:02:28;;;;;;;;;;;;;;;;;;5114576;27;20564;-62
2023/01/28 16:04:54;;;;;;;;;;;;;;;;;;5120762;27;19924;-61
2023/01/28 16:07:20;;;;;;;;;;;;;;;;;;5117302;27;19916;-61
2023/01/28 16:09:46;;;;;;;;;;;;;;;;;;5121376;27;20485;-63
2023/01/28 16:12:12;;;;;;;;;;;;;;;;;;5123036;27;19972;-61
2023/01/28 16:14:38;;;;;;;;;;;;;;;;;;5127891;27;20406;-62
2023/01/28 16:17:04;;;;;;;;;;;;;;;;;;5120641;27;19958;-61
2023/01/28 16:19:30;;;;;;;;;;;;;;;;;;5122095;27;19916;-61
2023/01/28 16:21:56;;;;;;;;;;;;;;;;;;5124716;27;19978;-61
2023/01/28 16:24:22;;;;;;;;;;;;;;;;;;5115712;27;20429;-62
2023/01/28 16:26:47;;;;;;;;;;;;;;;;;;5120698;27;19922;-62
2023/01/28 16:29:14;;;;;;;;;;;;;;;;;;5114426;27;20000;-62
2023/01/28 16:31:40;;;;;;;;;;;;;;;;;;5125154;27;19911;-62
2023/01/28 16:34:06;;;;;;;;;;;;;;;;;;5123532;27;19999;-63
2023/01/28 16:36:31;;;;;;;;;;;;;;;;;;5120766;27;19955;-61
2023/01/28 16:38:57;;;;;;;;;;;;;;;;;;5097744;27;19915;-62
2023/01/28 16:41:24;;;;;;;;;;;;;;;;;;5122613;27;20607;-61
2023/01/28 16:43:50;;;;;;;;;;;;;;;;;;5114186;27;19911;-61
2023/01/28 16:46:16;;;;;;;;;;;;;;;;;;5103217;27;19927;-61
2023/01/28 16:48:41;;;;;;;;;;;;;;;;;;5117331;27;19915;-62
2023/01/28 16:51:07;;;;;;;;;;;;;;;;;;5120532;27;19916;-62
2023/01/28 16:53:33;;;;;;;;;;;;;;;;;;5118902;27;20627;-61
2023/01/28 16:55:59;;;;;;;;;;;;;;;;;;5120302;27;19925;-62
2023/01/28 16:58:25;;;;;;;;;;;;;;;;;;5116911;27;19922;-62
2023/01/28 17:00:51;;;;;;;;;;;;;;;;;;5129569;27;19907;-61
2023/01/28 17:03:18;;;;;;;;;;;;;;;;;;5122548;27;20056;-61
2023/01/28 17:05:44;;;;;;;;;;;;;;;;;;5122557;27;19923;-61